createdAt,value
2023-03-02T00:01:26.534Z,1.75
2023-03-02T00:03:54.247Z,1.60
2023-03-02T00:06:21.289Z,1.30
2023-03-02T00:08:48.287Z,1.50
2023-03-02T00:11:15.689Z,1.42
2023-03-02T00:13:43.722Z,1.58
2023-03-02T00:16:10.936Z,1.58
2023-03-02T00:18:37.882Z,2.90
2023-03-02T00:21:04.884Z,2.25
2023-03-02T00:23:31.766Z,1.52
2023-03-02T00:25:58.715Z,1.67
2023-03-02T00:28:25.829Z,1.40
2023-03-02T00:30:52.729Z,1.20
2023-03-02T00:33:20.956Z,1.48
2023-03-02T00:35:47.901Z,1.27
2023-03-02T00:38:14.819Z,1.60
2023-03-02T00:40:49.459Z,1.50
2023-03-02T00:43:17.034Z,1.50
2023-03-02T00:45:44.453Z,1.27
2023-03-02T00:48:11.393Z,1.42
2023-03-02T00:50:41.088Z,1.33
2023-03-02T00:53:09.356Z,1.67
2023-03-02T00:55:37.639Z,1.58
2023-03-02T00:58:05.241Z,1.48
2023-03-02T01:00:34.281Z,1.90
2023-03-02T01:03:04.698Z,1.25
2023-03-02T01:05:35.625Z,1.83
2023-03-02T01:08:02.566Z,1.58
2023-03-02T01:10:32.072Z,1.83
2023-03-02T01:12:59.027Z,1.55
2023-03-02T01:15:26.380Z,1.55
2023-03-02T01:17:54.132Z,1.77
2023-03-02T01:20:21.153Z,1.75
2023-03-02T01:22:48.504Z,1.45
2023-03-02T01:25:15.730Z,1.60
2023-03-02T01:27:42.871Z,1.67
2023-03-02T01:30:10.502Z,1.60
2023-03-02T01:32:37.538Z,1.60
2023-03-02T01:35:05.025Z,1.42
2023-03-02T01:37:32.024Z,1.70
2023-03-02T01:39:58.917Z,1.42
2023-03-02T01:42:25.907Z,1.67
2023-03-02T01:44:57.140Z,1.67
2023-03-02T01:47:39.103Z,1.52
2023-03-02T01:50:19.558Z,1.40
2023-03-02T01:52:47.490Z,1.52
2023-03-02T01:55:20.015Z,1.70
2023-03-02T01:57:51.414Z,1.52
2023-03-02T02:00:25.575Z,1.52
2023-03-02T02:02:54.270Z,1.63
2023-03-02T02:05:25.563Z,1.77
2023-03-02T02:07:52.968Z,1.42
2023-03-02T02:10:20.255Z,2.15
2023-03-02T02:12:47.254Z,1.90
2023-03-02T02:15:14.242Z,2.00
2023-03-02T02:17:42.267Z,1.90
2023-03-02T02:20:34.024Z,2.03
2023-03-02T02:23:18.695Z,2.15
2023-03-02T02:26:01.951Z,2.28
2023-03-02T02:28:39.941Z,1.93
2023-03-02T02:31:36.576Z,1.70
2023-03-02T02:34:16.047Z,1.95
2023-03-02T02:36:47.485Z,1.58
2023-03-02T02:42:00.591Z,1.73
2023-03-02T02:44:28.746Z,2.92
2023-03-02T02:46:55.782Z,2.53
2023-03-02T02:49:28.683Z,2.45
2023-03-02T02:51:55.824Z,2.72
2023-03-02T02:54:23.637Z,3.65
2023-03-02T02:56:52.561Z,4.88
2023-03-02T02:59:29.601Z,4.15
2023-03-02T03:02:00.279Z,4.53
2023-03-02T03:04:30.620Z,4.63
2023-03-02T03:07:00.188Z,4.30
2023-03-02T03:09:28.231Z,5.07
2023-03-02T03:12:01.535Z,4.45
2023-03-02T03:14:36.510Z,4.30
2023-03-02T03:17:11.910Z,4.88
2023-03-02T03:19:44.357Z,5.05
2023-03-02T03:22:14.648Z,4.18
2023-03-02T03:24:43.420Z,4.38
2023-03-02T03:27:12.889Z,4.78
2023-03-02T03:29:43.616Z,4.57
2023-03-02T03:32:13.894Z,4.65
2023-03-02T03:34:41.276Z,4.30
2023-03-02T03:37:42.044Z,4.95
2023-03-02T03:40:10.853Z,4.65
2023-03-02T03:42:41.141Z,5.25
2023-03-02T03:45:09.365Z,5.15
2023-03-02T03:47:37.946Z,4.72
2023-03-02T03:50:06.911Z,4.82
2023-03-02T03:52:34.630Z,5.00
2023-03-02T03:55:13.827Z,5.68
2023-03-02T03:57:42.550Z,5.03
2023-03-02T04:00:15.039Z,5.15
2023-03-02T04:02:46.097Z,4.93
2023-03-02T04:05:14.362Z,5.47
2023-03-02T04:07:41.634Z,5.60
2023-03-02T04:10:10.040Z,5.50
2023-03-02T04:12:40.862Z,4.97
2023-03-02T04:15:13.084Z,4.25
2023-03-02T04:17:40.059Z,4.57
2023-03-02T04:20:08.796Z,4.97
2023-03-02T04:22:37.369Z,4.68
2023-03-02T04:25:05.232Z,4.57
2023-03-02T04:27:32.916Z,4.68
2023-03-02T04:30:00.140Z,4.93
2023-03-02T04:32:27.282Z,4.80
2023-03-02T04:34:55.985Z,5.68
2023-03-02T04:37:23.956Z,4.28
2023-03-02T04:39:52.799Z,4.65
2023-03-02T04:42:20.451Z,4.97
2023-03-02T04:44:48.093Z,4.13
2023-03-02T04:47:15.329Z,5.00
2023-03-02T04:49:42.445Z,4.75
2023-03-02T04:52:09.642Z,4.50
2023-03-02T04:54:36.780Z,4.18
2023-03-02T04:57:04.056Z,4.38
2023-03-02T04:59:31.114Z,4.93
2023-03-02T05:02:00.553Z,4.90
2023-03-02T05:04:28.854Z,5.20
2023-03-02T05:06:56.684Z,4.75
2023-03-02T05:09:27.507Z,4.30
2023-03-02T05:11:56.102Z,4.40
2023-03-02T05:14:23.940Z,4.65
2023-03-02T05:16:51.411Z,5.50
2023-03-02T05:19:19.267Z,4.75
2023-03-02T05:21:46.549Z,3.90
2023-03-02T05:24:13.900Z,4.60
2023-03-02T05:26:41.512Z,4.72
2023-03-02T05:29:08.830Z,4.50
2023-03-02T05:31:40.779Z,4.43
2023-03-02T05:34:10.715Z,4.57
2023-03-02T05:36:38.587Z,4.72
2023-03-02T05:39:06.858Z,5.35
2023-03-02T05:41:34.395Z,4.53
2023-03-02T05:44:01.740Z,4.65
2023-03-02T05:46:28.807Z,5.35
2023-03-02T05:48:55.832Z,4.22
2023-03-02T05:51:22.865Z,4.70
2023-03-02T05:53:49.825Z,5.28
2023-03-02T05:56:16.779Z,5.70
2023-03-02T05:58:43.717Z,4.80
2023-03-02T06:01:14.890Z,4.15
2023-03-02T06:03:43.270Z,4.63
2023-03-02T06:06:14.122Z,4.57
2023-03-02T06:08:42.813Z,4.85
2023-03-02T06:11:10.205Z,4.57
2023-03-02T06:13:37.713Z,4.20
2023-03-02T06:16:05.503Z,5.30
2023-03-02T06:18:32.590Z,4.97
2023-03-02T06:21:00.037Z,5.32
2023-03-02T06:23:27.007Z,4.78
2023-03-02T06:25:54.088Z,4.95
2023-03-02T06:28:21.942Z,4.72
2023-03-02T06:30:49.565Z,5.65
2023-03-02T06:33:18.175Z,4.32
2023-03-02T06:35:45.805Z,5.95
2023-03-02T06:38:13.111Z,5.20
2023-03-02T06:40:40.079Z,5.07
2023-03-02T06:43:07.080Z,6.53
2023-03-02T06:45:34.263Z,5.38
2023-03-02T06:48:02.065Z,5.10
2023-03-02T06:50:29.093Z,5.35
2023-03-02T06:52:56.270Z,6.00
2023-03-02T06:55:23.432Z,5.22
2023-03-02T06:57:50.782Z,5.18
2023-03-02T07:00:25.880Z,4.88
2023-03-02T07:02:53.831Z,4.85
2023-03-02T07:05:21.598Z,5.13
2023-03-02T07:07:48.502Z,6.38
2023-03-02T07:10:15.572Z,6.10
2023-03-02T07:12:42.770Z,6.10
2023-03-02T07:15:12.339Z,6.40
2023-03-02T07:17:40.488Z,5.80
2023-03-02T07:20:08.147Z,6.55
2023-03-02T07:22:35.106Z,5.25
2023-03-02T07:25:02.048Z,5.28
2023-03-02T07:27:29.044Z,5.95
2023-03-02T07:29:55.988Z,5.80
2023-03-02T07:32:23.023Z,5.88
2023-03-02T07:34:50.052Z,6.80
2023-03-02T07:37:17.034Z,6.18
2023-03-02T07:39:44.169Z,6.97
2023-03-02T07:42:12.694Z,7.13
2023-03-02T07:44:42.146Z,6.70
2023-03-02T07:47:09.127Z,6.53
2023-03-02T07:49:36.102Z,6.93
2023-03-02T07:52:04.196Z,6.78
2023-03-02T07:54:31.571Z,7.28
2023-03-02T07:56:59.362Z,7.65
2023-03-02T07:59:28.383Z,7.25
2023-03-02T08:01:56.398Z,8.70
2023-03-02T08:04:24.822Z,7.35
2023-03-02T08:06:51.998Z,7.45
2023-03-02T08:09:19.138Z,6.30
2023-03-02T08:11:47.776Z,6.18
2023-03-02T08:14:14.946Z,6.68
2023-03-02T08:16:42.223Z,7.10
2023-03-02T08:19:09.231Z,6.28
2023-03-02T08:21:36.546Z,7.40
2023-03-02T08:24:03.769Z,7.28
2023-03-02T08:26:30.817Z,7.55
2023-03-02T08:28:59.324Z,7.10
2023-03-02T08:31:27.203Z,6.28
2023-03-02T08:33:54.447Z,6.53
2023-03-02T08:36:21.889Z,7.13
2023-03-02T08:38:49.768Z,6.40
2023-03-02T08:41:20.073Z,5.95
2023-03-02T08:43:47.758Z,7.15
2023-03-02T08:46:17.046Z,6.47
2023-03-02T08:48:44.675Z,6.57
2023-03-02T08:51:21.136Z,6.10
2023-03-02T08:53:55.047Z,4.72
2023-03-02T08:56:34.395Z,3.97
2023-03-02T08:59:07.393Z,3.30
2023-03-02T09:01:36.532Z,4.00
2023-03-02T09:04:05.590Z,2.80
2023-03-02T09:06:35.476Z,2.53
2023-03-02T09:09:03.037Z,3.22
2023-03-02T09:11:29.995Z,2.47
2023-03-02T09:13:57.083Z,3.00
2023-03-02T09:16:25.813Z,2.80
2023-03-02T09:18:53.461Z,3.30
2023-03-02T09:21:20.572Z,3.67
2023-03-02T09:23:47.571Z,3.72
2023-03-02T09:26:14.483Z,4.55
2023-03-02T09:28:41.414Z,4.10
2023-03-02T09:31:09.367Z,4.70
2023-03-02T09:33:36.650Z,7.20
2023-03-02T09:36:14.298Z,4.90
2023-03-02T09:38:41.196Z,4.03
2023-03-02T09:41:28.458Z,3.90
2023-03-02T09:44:16.903Z,4.10
2023-03-02T09:47:02.969Z,4.60
2023-03-02T09:49:49.130Z,4.18
2023-03-02T09:52:35.788Z,4.40
2023-03-02T09:55:22.326Z,4.40
2023-03-02T09:57:50.392Z,4.93
2023-03-02T10:00:27.999Z,5.32
2023-03-02T10:03:11.393Z,5.10
2023-03-02T10:05:48.571Z,3.58
2023-03-02T10:08:23.837Z,3.70
2023-03-02T10:11:05.824Z,4.05
2023-03-02T10:13:52.388Z,4.32
2023-03-02T10:16:48.458Z,5.22
2023-03-02T10:19:18.424Z,4.20
2023-03-02T10:21:56.220Z,4.30
2023-03-02T10:24:40.199Z,4.30
2023-03-02T10:29:58.843Z,4.80
2023-03-02T10:32:31.311Z,4.43
2023-03-02T10:35:01.229Z,6.00
2023-03-02T10:37:31.557Z,4.40
2023-03-02T10:39:59.080Z,4.10
2023-03-02T10:42:37.923Z,5.05
2023-03-02T10:45:25.123Z,5.88
2023-03-02T10:48:02.108Z,5.47
2023-03-02T10:50:30.665Z,5.40
2023-03-02T10:53:01.069Z,6.47
2023-03-02T10:55:28.857Z,2.60
2023-03-02T10:58:03.962Z,2.75
2023-03-02T11:00:32.576Z,3.92
2023-03-02T11:03:02.571Z,1.92
2023-03-02T11:05:38.020Z,2.55
2023-03-02T11:08:21.832Z,1.70
2023-03-02T11:11:01.473Z,1.63
2023-03-02T11:13:37.075Z,1.63
2023-03-02T11:16:22.158Z,1.73
2023-03-02T11:18:52.833Z,7.80
2023-03-02T11:21:35.793Z,2.10
2023-03-02T11:24:37.899Z,2.22
2023-03-02T11:27:22.625Z,1.70
2023-03-02T11:29:58.500Z,1.45
2023-03-02T11:32:34.176Z,1.77
2023-03-02T11:35:10.026Z,1.70
2023-03-02T11:37:49.579Z,1.75
2023-03-02T11:40:26.405Z,3.13
2023-03-02T11:42:56.716Z,2.83
2023-03-02T11:45:31.331Z,1.73
2023-03-02T11:48:22.303Z,2.58
2023-03-02T11:50:57.997Z,2.00
2023-03-02T11:53:39.465Z,1.90
2023-03-02T11:56:06.723Z,2.10
2023-03-02T11:58:34.660Z,1.70
2023-03-02T12:01:03.128Z,2.25
2023-03-02T12:03:32.970Z,1.55
2023-03-02T12:06:27.729Z,1.63
2023-03-02T12:09:07.900Z,2.15
2023-03-02T12:11:38.830Z,1.58
2023-03-02T12:14:35.276Z,1.95
2023-03-02T12:17:18.167Z,1.73
2023-03-02T12:19:46.102Z,2.00
2023-03-02T12:22:15.245Z,1.50
2023-03-02T12:24:45.118Z,2.70
2023-03-02T12:27:25.543Z,2.25
2023-03-02T12:30:23.565Z,2.58
2023-03-02T12:33:11.590Z,1.80
2023-03-02T12:35:39.213Z,2.08
2023-03-02T12:38:24.317Z,1.90
2023-03-02T12:41:05.934Z,1.92
2023-03-02T12:43:37.734Z,1.75
2023-03-02T12:46:27.860Z,1.70
2023-03-02T12:49:13.409Z,1.73
2023-03-02T12:52:01.207Z,1.70
2023-03-02T12:54:33.843Z,1.90
2023-03-02T12:57:17.576Z,1.67
2023-03-02T12:59:54.965Z,1.23
2023-03-02T13:02:28.584Z,1.73
2023-03-02T13:05:04.634Z,1.80
2023-03-02T13:07:58.603Z,1.65
2023-03-02T13:10:39.234Z,1.70
2023-03-02T13:13:27.777Z,2.20
2023-03-02T13:16:00.031Z,1.58
2023-03-02T13:18:35.523Z,1.15
2023-03-02T13:21:04.562Z,2.30
2023-03-02T13:23:32.959Z,3.13
2023-03-02T13:26:03.616Z,3.53
2023-03-02T13:28:36.341Z,2.97
2023-03-02T13:31:05.233Z,2.83
2023-03-02T13:33:35.585Z,2.60
2023-03-02T13:36:04.128Z,2.00
2023-03-02T13:38:37.643Z,1.95
2023-03-02T13:41:05.097Z,2.30
2023-03-02T13:43:40.824Z,1.92
2023-03-02T13:46:13.891Z,2.10
2023-03-02T13:48:40.807Z,2.40
2023-03-02T13:51:19.414Z,2.00
2023-03-02T13:54:02.505Z,3.38
2023-03-02T13:56:38.138Z,2.20
2023-03-02T13:59:05.600Z,1.85
2023-03-02T14:01:32.658Z,1.10
2023-03-02T14:04:01.517Z,1.60
2023-03-02T14:06:28.517Z,2.80
2023-03-02T14:08:55.490Z,2.50
2023-03-02T14:11:22.408Z,1.70
2023-03-02T14:13:55.471Z,1.77
2023-03-02T14:16:24.152Z,2.10
2023-03-02T14:18:56.238Z,1.80
2023-03-02T14:21:25.691Z,2.03
2023-03-02T14:23:54.216Z,2.40
2023-03-02T14:26:28.859Z,1.40
2023-03-02T14:29:05.002Z,1.55
2023-03-02T14:31:32.898Z,1.30
2023-03-02T14:33:59.937Z,1.20
2023-03-02T14:36:32.011Z,1.40
2023-03-02T14:39:02.743Z,2.00
2023-03-02T14:41:30.689Z,2.40
2023-03-02T14:43:58.454Z,2.30
2023-03-02T14:46:25.459Z,2.28
2023-03-02T14:48:52.562Z,1.70
2023-03-02T14:51:24.119Z,1.63
2023-03-02T14:53:53.878Z,1.50
2023-03-02T14:56:22.975Z,1.88
2023-03-02T14:58:53.441Z,1.52
2023-03-02T15:01:21.594Z,1.40
2023-03-02T15:03:48.491Z,1.63
2023-03-02T15:06:28.645Z,1.77
2023-03-02T15:08:57.671Z,2.55
2023-03-02T15:11:25.329Z,2.20
2023-03-02T15:13:52.734Z,2.10
2023-03-02T15:16:20.106Z,1.50
2023-03-02T15:18:50.015Z,1.60
2023-03-02T15:21:21.198Z,1.50
2023-03-02T15:23:48.305Z,1.30
2023-03-02T15:26:15.705Z,1.90
2023-03-02T15:28:42.979Z,1.30
2023-03-02T15:31:14.719Z,1.55
2023-03-02T15:33:45.196Z,1.58
2023-03-02T15:36:13.695Z,1.67
2023-03-02T15:38:40.986Z,2.33
2023-03-02T15:41:13.656Z,2.70
2023-03-02T15:43:40.844Z,1.77
2023-03-02T15:46:09.456Z,1.95
2023-03-02T15:48:37.814Z,1.70
2023-03-02T15:51:07.469Z,2.13
2023-03-02T15:53:38.804Z,2.10
2023-03-02T15:56:14.958Z,2.17
2023-03-02T15:58:47.085Z,2.10
2023-03-02T16:01:16.773Z,2.28
2023-03-02T16:03:45.440Z,3.05
2023-03-02T16:06:13.416Z,2.70
2023-03-02T16:08:40.474Z,1.90
2023-03-02T16:11:10.121Z,2.38
2023-03-02T16:13:37.773Z,2.30
2023-03-02T16:16:06.110Z,2.22
2023-03-02T16:18:33.167Z,2.08
2023-03-02T16:21:02.690Z,2.80
2023-03-02T16:23:29.586Z,3.05
2023-03-02T16:26:07.388Z,2.72
2023-03-02T16:28:34.645Z,2.60
2023-03-02T16:31:06.400Z,2.53
2023-03-02T16:33:33.983Z,2.55
2023-03-02T16:36:00.975Z,2.83
2023-03-02T16:38:27.934Z,2.88
2023-03-02T16:40:57.059Z,3.72
2023-03-02T16:43:24.518Z,3.00
2023-03-02T16:45:52.468Z,3.40
2023-03-02T16:48:19.464Z,3.83
2023-03-02T16:50:53.961Z,4.00
2023-03-02T16:53:20.978Z,9.93
2023-03-02T16:55:49.443Z,4.75
2023-03-02T16:58:16.773Z,5.60
2023-03-02T17:00:43.732Z,5.32
2023-03-02T17:03:10.627Z,6.03
2023-03-02T17:05:37.690Z,7.82
2023-03-02T17:08:06.364Z,5.75
2023-03-02T17:10:33.369Z,6.30
2023-03-02T17:13:00.284Z,6.63
2023-03-02T17:15:27.525Z,5.82
2023-03-02T17:17:54.637Z,7.32
2023-03-02T17:20:21.952Z,16.52
2023-03-02T17:22:48.918Z,16.50
2023-03-02T17:25:18.071Z,12.05
2023-03-02T17:27:45.720Z,9.38
2023-03-02T17:30:14.800Z,9.50
2023-03-02T17:32:42.467Z,8.80
2023-03-02T17:35:12.865Z,9.93
2023-03-02T17:37:40.364Z,21.08
2023-03-02T17:40:08.543Z,16.15
2023-03-02T17:42:35.452Z,16.60
2023-03-02T17:45:02.450Z,14.07
2023-03-02T17:47:29.449Z,11.15
2023-03-02T17:49:58.346Z,8.48
2023-03-02T17:52:25.427Z,9.57
2023-03-02T17:54:54.081Z,9.02
2023-03-02T17:57:22.671Z,8.85
2023-03-02T17:59:52.844Z,9.48
2023-03-02T18:02:19.847Z,9.68
2023-03-02T18:04:46.824Z,10.07
2023-03-02T18:07:13.739Z,10.15
2023-03-02T18:09:40.762Z,11.27
2023-03-02T18:12:08.228Z,14.82
2023-03-02T18:14:36.350Z,10.00
2023-03-02T18:17:05.010Z,10.88
2023-03-02T18:19:32.217Z,10.88
2023-03-02T18:21:59.341Z,10.00
2023-03-02T18:24:26.281Z,8.85
2023-03-02T18:26:53.270Z,9.55
2023-03-02T18:29:20.945Z,10.07
2023-03-02T18:31:48.704Z,11.38
2023-03-02T18:34:15.761Z,14.98
2023-03-02T18:36:42.722Z,13.00
2023-03-02T18:39:09.626Z,11.13
2023-03-02T18:41:36.589Z,9.95
2023-03-02T18:44:03.586Z,10.52
2023-03-02T18:46:31.887Z,11.75
2023-03-02T18:49:00.567Z,10.95
2023-03-02T18:51:28.104Z,11.52
2023-03-02T18:53:55.786Z,10.68
2023-03-02T18:56:23.253Z,12.80
2023-03-02T18:58:51.451Z,12.15
2023-03-02T19:01:19.840Z,11.23
2023-03-02T19:03:46.841Z,11.88
2023-03-02T19:06:14.404Z,13.13
2023-03-02T19:08:41.402Z,11.65
2023-03-02T19:11:08.538Z,10.63
2023-03-02T19:13:35.693Z,10.38
2023-03-02T19:16:03.074Z,9.93
2023-03-02T19:18:30.966Z,9.75
2023-03-02T19:20:57.915Z,11.18
2023-03-02T19:23:25.222Z,12.25
2023-03-02T19:25:52.550Z,11.10
2023-03-02T19:28:21.612Z,10.95
2023-03-02T19:30:49.960Z,11.35
2023-03-02T19:33:17.427Z,11.32
2023-03-02T19:35:44.686Z,10.75
2023-03-02T19:38:12.565Z,9.95
2023-03-02T19:40:39.499Z,9.73
2023-03-02T19:43:06.796Z,10.70
2023-03-02T19:45:34.907Z,10.27
2023-03-02T19:48:03.362Z,9.80
2023-03-02T19:50:30.597Z,9.98
2023-03-02T19:52:58.437Z,10.20
2023-03-02T19:55:26.649Z,9.23
2023-03-02T19:58:00.244Z,10.40
2023-03-02T20:00:29.875Z,11.10
2023-03-02T20:02:57.678Z,10.55
2023-03-02T20:05:27.491Z,9.32
2023-03-02T20:07:55.344Z,8.35
2023-03-02T20:10:36.619Z,9.13
2023-03-02T20:13:05.033Z,9.25
2023-03-02T20:15:34.040Z,10.30
2023-03-02T20:18:02.749Z,10.85
2023-03-02T20:20:30.650Z,10.57
2023-03-02T20:22:58.834Z,12.38
2023-03-02T20:25:27.140Z,11.27
2023-03-02T20:27:54.901Z,9.40
2023-03-02T20:30:32.360Z,10.60
2023-03-02T20:33:00.674Z,11.43
2023-03-02T20:35:29.913Z,10.05
2023-03-02T20:38:00.276Z,10.95
2023-03-02T20:40:28.073Z,10.35
2023-03-02T20:42:55.166Z,9.88
2023-03-02T20:45:22.400Z,9.27
2023-03-02T20:47:49.727Z,8.00
2023-03-02T20:50:20.877Z,8.15
2023-03-02T20:52:47.888Z,9.70
2023-03-02T20:55:14.847Z,7.95
2023-03-02T20:57:41.819Z,8.05
2023-03-02T21:00:14.658Z,8.98
2023-03-02T21:02:42.492Z,9.10
2023-03-02T21:05:10.152Z,8.80
2023-03-02T21:07:37.566Z,10.35
2023-03-02T21:10:08.634Z,9.35
2023-03-02T21:12:35.630Z,8.07
2023-03-02T21:15:04.305Z,7.72
2023-03-02T21:17:31.546Z,7.53
2023-03-02T21:19:58.817Z,7.43
2023-03-02T21:22:25.768Z,7.75
2023-03-02T21:24:53.096Z,11.40
2023-03-02T21:27:20.758Z,12.18
2023-03-02T21:29:48.512Z,9.88
2023-03-02T21:32:16.135Z,12.32
2023-03-02T21:34:44.915Z,10.13
2023-03-02T21:37:11.958Z,8.38
2023-03-02T21:39:38.954Z,7.53
2023-03-02T21:42:06.079Z,7.25
2023-03-02T21:44:33.010Z,7.50
2023-03-02T21:46:59.936Z,7.70
2023-03-02T21:49:27.064Z,7.15
2023-03-02T21:51:54.167Z,7.53
2023-03-02T21:54:21.067Z,7.68
2023-03-02T21:56:48.008Z,6.95
2023-03-02T21:59:14.950Z,7.75
2023-03-02T22:01:42.002Z,9.60
2023-03-02T22:04:08.988Z,8.52
2023-03-02T22:06:37.762Z,8.32
2023-03-02T22:09:04.907Z,9.68
2023-03-02T22:11:36.693Z,16.17
2023-03-02T22:14:14.276Z,10.27
2023-03-02T22:16:43.038Z,11.30
2023-03-02T22:19:26.945Z,8.23
2023-03-02T22:21:55.862Z,7.97
2023-03-02T22:24:29.273Z,7.32
2023-03-02T22:26:59.261Z,7.15
2023-03-02T22:29:33.594Z,6.80
2023-03-02T22:32:21.814Z,8.50
2023-03-02T22:35:25.409Z,7.13
2023-03-02T22:38:01.379Z,6.35
2023-03-02T22:40:34.233Z,7.07
2023-03-02T22:43:34.235Z,6.93
2023-03-02T22:46:20.181Z,6.78
2023-03-02T22:48:49.760Z,9.18
2023-03-02T22:51:25.268Z,10.15
2023-03-02T22:53:57.967Z,7.93
2023-03-02T22:56:37.524Z,7.85
2023-03-02T22:59:17.923Z,8.18
2023-03-02T23:01:45.986Z,7.03
2023-03-02T23:04:40.615Z,6.93
2023-03-02T23:07:19.693Z,5.03
2023-03-02T23:09:46.939Z,6.25
2023-03-02T23:12:23.894Z,6.43
2023-03-02T23:14:55.746Z,6.63
2023-03-02T23:17:39.797Z,6.35
2023-03-02T23:22:36.373Z,6.45
2023-03-02T23:25:03.664Z,6.30
2023-03-02T23:27:30.633Z,5.80
2023-03-02T23:29:57.707Z,7.40
2023-03-02T23:32:24.856Z,6.47
2023-03-02T23:34:52.346Z,6.72
2023-03-02T23:37:19.351Z,6.32
2023-03-02T23:39:46.370Z,7.40
2023-03-02T23:42:13.420Z,7.45
2023-03-02T23:44:40.428Z,5.47
2023-03-02T23:47:07.495Z,7.75
2023-03-02T23:49:34.437Z,6.28
2023-03-02T23:52:01.474Z,6.53
2023-03-02T23:54:28.420Z,6.80
2023-03-02T23:56:55.295Z,6.13
2023-03-02T23:59:22.246Z,5.82
